createdAt,value
2019-06-27T00:00:06.925Z,1010.15
2019-06-27T00:01:07.137Z,1010.11
2019-06-27T00:02:08.318Z,1010.16
2019-06-27T00:03:08.117Z,1010.12
2019-06-27T00:04:07.646Z,1010.16
2019-06-27T00:05:08.642Z,1010.17
2019-06-27T00:06:08.128Z,1010.19
2019-06-27T00:07:08.282Z,1010.23
2019-06-27T00:08:08.428Z,1010.27
2019-06-27T00:09:08.635Z,1010.27
2019-06-27T00:10:08.770Z,1010.24
2019-06-27T00:11:09.628Z,1010.23
2019-06-27T00:12:09.200Z,1010.23
2019-06-27T00:13:09.257Z,1010.30
2019-06-27T00:14:09.432Z,1010.28
2019-06-27T00:15:09.603Z,1010.24
2019-06-27T00:16:10.163Z,1010.31
2019-06-27T00:17:10.131Z,1010.29
2019-06-27T00:18:10.186Z,1010.30
2019-06-27T00:19:10.385Z,1010.30
2019-06-27T00:20:10.577Z,1010.31
2019-06-27T00:21:10.760Z,1010.29
2019-06-27T00:22:10.968Z,1010.31
2019-06-27T00:23:11.074Z,1010.27
2019-06-27T00:24:12.264Z,1010.27
2019-06-27T00:25:12.130Z,1010.23
2019-06-27T00:26:11.631Z,1010.30
2019-06-27T00:27:11.828Z,1010.28
2019-06-27T00:28:12.134Z,1010.28
2019-06-27T00:29:12.646Z,1010.28
2019-06-27T00:30:12.310Z,1010.31
2019-06-27T00:31:12.468Z,1010.34
2019-06-27T00:32:13.138Z,1010.32
2019-06-27T00:33:12.888Z,1010.34
2019-06-27T00:34:13.621Z,1010.32
2019-06-27T00:35:13.265Z,1010.34
2019-06-27T00:36:13.460Z,1010.32
2019-06-27T00:37:14.151Z,1010.37
2019-06-27T00:38:14.642Z,1010.29
2019-06-27T00:39:14.139Z,1010.31
2019-06-27T00:40:14.181Z,1010.31
2019-06-27T00:41:14.395Z,1010.32
2019-06-27T00:42:14.549Z,1010.37
2019-06-27T00:43:14.702Z,1010.34
2019-06-27T00:44:15.150Z,1010.33
2019-06-27T00:45:15.099Z,1010.39
2019-06-27T00:46:16.154Z,1010.40
2019-06-27T00:47:15.423Z,1010.38
2019-06-27T00:48:15.649Z,1010.35
2019-06-27T00:49:16.641Z,1010.36
2019-06-27T00:50:16.016Z,1010.36
2019-06-27T00:51:17.129Z,1010.41
2019-06-27T00:52:16.407Z,1010.37
2019-06-27T00:53:16.591Z,1010.41
2019-06-27T00:54:17.167Z,1010.48
2019-06-27T00:55:16.992Z,1010.54
2019-06-27T00:56:17.183Z,1010.54
2019-06-27T00:57:17.367Z,1010.55
2019-06-27T00:58:17.578Z,1010.60
2019-06-27T00:59:17.792Z,1010.54
2019-06-27T01:00:18.150Z,1010.57
2019-06-27T01:01:18.076Z,1010.56
2019-06-27T01:02:18.292Z,1010.62
2019-06-27T01:03:18.469Z,1010.56
2019-06-27T01:04:18.660Z,1010.55
2019-06-27T01:05:18.826Z,1010.59
2019-06-27T01:06:19.637Z,1010.53
2019-06-27T01:07:19.167Z,1010.56
2019-06-27T01:08:20.170Z,1010.62
2019-06-27T01:09:19.654Z,1010.60
2019-06-27T01:10:19.564Z,1010.55
2019-06-27T01:11:20.149Z,1010.56
2019-06-27T01:12:19.913Z,1010.57
2019-06-27T01:13:20.129Z,1010.58
2019-06-27T01:14:21.137Z,1010.58
2019-06-27T01:15:21.137Z,1010.49
2019-06-27T01:16:21.145Z,1010.58
2019-06-27T01:17:20.747Z,1010.50
2019-06-27T01:18:21.661Z,1010.53
2019-06-27T01:19:21.020Z,1010.48
2019-06-27T01:20:21.175Z,1010.52
2019-06-27T01:21:21.313Z,1010.55
2019-06-27T01:22:21.441Z,1010.54
2019-06-27T01:23:21.637Z,1010.58
2019-06-27T01:24:21.764Z,1010.55
2019-06-27T01:25:22.148Z,1010.52
2019-06-27T01:26:22.639Z,1010.50
2019-06-27T01:27:30.071Z,1010.53
2019-06-27T01:28:25.149Z,1010.46
2019-06-27T01:29:22.816Z,1010.47
2019-06-27T01:30:23.083Z,1010.57
2019-06-27T01:31:23.214Z,1010.48
2019-06-27T01:32:23.336Z,1010.58
2019-06-27T01:33:23.603Z,1010.56
2019-06-27T01:34:23.746Z,1010.50
2019-06-27T01:35:23.886Z,1010.54
2019-06-27T01:36:24.028Z,1010.52
2019-06-27T01:37:24.130Z,1010.55
2019-06-27T01:38:24.652Z,1010.52
2019-06-27T01:39:24.479Z,1010.51
2019-06-27T01:40:25.131Z,1010.51
2019-06-27T01:41:26.160Z,1010.52
2019-06-27T01:42:25.879Z,1010.48
2019-06-27T01:43:25.106Z,1010.43
2019-06-27T01:44:26.149Z,1010.43
2019-06-27T01:45:25.700Z,1010.41
2019-06-27T01:46:26.147Z,1010.47
2019-06-27T01:47:25.789Z,1010.41
2019-06-27T01:48:25.930Z,1010.41
2019-06-27T01:49:26.051Z,1010.42
2019-06-27T01:50:26.219Z,1010.45
2019-06-27T01:51:26.379Z,1010.45
2019-06-27T01:52:26.539Z,1010.48
2019-06-27T01:53:26.664Z,1010.43
2019-06-27T01:54:26.852Z,1010.39
2019-06-27T01:55:27.019Z,1010.35
2019-06-27T01:56:27.667Z,1010.38
2019-06-27T01:57:27.291Z,1010.39
2019-06-27T01:58:27.429Z,1010.38
2019-06-27T01:59:27.596Z,1010.46
2019-06-27T02:00:28.654Z,1010.46
2019-06-27T02:01:27.945Z,1010.49
2019-06-27T02:02:28.154Z,1010.39
2019-06-27T02:03:29.147Z,1010.44
2019-06-27T02:04:29.531Z,1010.43
2019-06-27T02:05:28.659Z,1010.50
2019-06-27T02:06:29.639Z,1010.46
2019-06-27T02:07:29.064Z,1010.48
2019-06-27T02:08:29.239Z,1010.47
2019-06-27T02:09:33.209Z,1010.40
2019-06-27T02:10:29.584Z,1010.42
2019-06-27T02:11:29.731Z,1010.38
2019-06-27T02:12:29.890Z,1010.53
2019-06-27T02:13:30.092Z,1010.44
2019-06-27T02:14:30.260Z,1010.52
2019-06-27T02:15:30.674Z,1010.54
2019-06-27T02:16:31.170Z,1010.50
2019-06-27T02:17:31.158Z,1010.47
2019-06-27T02:18:30.954Z,1010.47
2019-06-27T02:19:31.163Z,1010.47
2019-06-27T02:20:31.343Z,1010.49
2019-06-27T02:21:32.159Z,1010.49
2019-06-27T02:22:31.658Z,1010.54
2019-06-27T02:23:31.833Z,1010.58
2019-06-27T02:24:32.654Z,1010.50
2019-06-27T02:25:32.171Z,1010.58
2019-06-27T02:26:32.353Z,1010.56
2019-06-27T02:27:32.501Z,1010.65
2019-06-27T02:28:33.164Z,1010.61
2019-06-27T02:29:33.165Z,1010.63
2019-06-27T02:30:33.095Z,1010.63
2019-06-27T02:31:34.150Z,1010.67
2019-06-27T02:32:34.158Z,1010.66
2019-06-27T02:33:33.552Z,1010.70
2019-06-27T02:34:34.158Z,1010.71
2019-06-27T02:35:33.954Z,1010.72
2019-06-27T02:36:34.124Z,1010.68
2019-06-27T02:37:34.259Z,1010.68
2019-06-27T02:38:35.447Z,1010.70
2019-06-27T02:39:34.564Z,1010.63
2019-06-27T02:40:34.769Z,1010.72
2019-06-27T02:41:35.667Z,1010.71
2019-06-27T02:42:35.191Z,1010.76
2019-06-27T02:43:35.384Z,1010.71
2019-06-27T02:44:36.148Z,1010.73
2019-06-27T02:45:36.668Z,1010.74
2019-06-27T02:46:36.663Z,1010.78
2019-06-27T02:47:37.155Z,1010.77
2019-06-27T02:48:36.682Z,1010.84
2019-06-27T02:49:36.566Z,1010.79
2019-06-27T02:50:36.702Z,1010.82
2019-06-27T02:51:37.875Z,1010.82
2019-06-27T02:52:36.999Z,1010.78
2019-06-27T02:53:37.136Z,1010.77
2019-06-27T02:54:38.170Z,1010.79
2019-06-27T02:55:37.432Z,1010.76
2019-06-27T02:56:37.674Z,1010.77
2019-06-27T02:57:37.802Z,1010.83
2019-06-27T02:58:37.962Z,1010.81
2019-06-27T02:59:38.661Z,1010.78
2019-06-27T03:00:38.356Z,1010.74
2019-06-27T03:01:39.199Z,1010.68
2019-06-27T03:02:40.659Z,1010.78
2019-06-27T03:03:38.906Z,1010.74
2019-06-27T03:04:39.119Z,1010.73
2019-06-27T03:05:39.264Z,1010.79
2019-06-27T03:06:39.438Z,1010.81
2019-06-27T03:07:39.602Z,1010.87
2019-06-27T03:08:39.784Z,1010.84
2019-06-27T03:09:39.917Z,1010.83
2019-06-27T03:10:40.662Z,1010.83
2019-06-27T03:11:40.670Z,1010.83
2019-06-27T03:12:40.478Z,1010.80
2019-06-27T03:13:40.668Z,1010.82
2019-06-27T03:14:40.815Z,1010.78
2019-06-27T03:15:41.194Z,1010.83
2019-06-27T03:16:41.121Z,1010.79
2019-06-27T03:17:42.300Z,1010.78
2019-06-27T03:18:42.166Z,1010.81
2019-06-27T03:19:42.155Z,1010.82
2019-06-27T03:20:41.729Z,1010.81
2019-06-27T03:21:41.818Z,1010.82
2019-06-27T03:22:42.022Z,1010.77
2019-06-27T03:23:43.173Z,1010.79
2019-06-27T03:24:42.357Z,1010.82
2019-06-27T03:25:42.677Z,1010.77
2019-06-27T03:26:42.754Z,1010.80
2019-06-27T03:27:42.949Z,1010.84
2019-06-27T03:28:52.304Z,1010.84
2019-06-27T03:29:46.169Z,1010.82
2019-06-27T03:30:43.558Z,1010.83
2019-06-27T03:31:43.757Z,1010.82
2019-06-27T03:32:44.019Z,1010.89
2019-06-27T03:33:44.083Z,1010.84
2019-06-27T03:34:44.318Z,1010.88
2019-06-27T03:35:44.718Z,1010.92
2019-06-27T03:36:45.168Z,1010.95
2019-06-27T03:37:45.186Z,1010.89
2019-06-27T03:38:45.669Z,1010.92
2019-06-27T03:39:45.092Z,1010.87
2019-06-27T03:40:45.308Z,1010.87
2019-06-27T03:41:45.506Z,1010.85
2019-06-27T03:42:45.711Z,1010.87
2019-06-27T03:43:46.669Z,1010.82
2019-06-27T03:44:46.186Z,1010.87
2019-06-27T03:45:46.249Z,1010.91
2019-06-27T03:46:46.428Z,1010.92
2019-06-27T03:47:46.624Z,1010.90
2019-06-27T03:48:46.791Z,1010.87
2019-06-27T03:49:46.926Z,1010.89
2019-06-27T03:50:47.674Z,1010.94
2019-06-27T03:51:47.311Z,1010.93
2019-06-27T03:52:47.490Z,1010.91
2019-06-27T03:53:47.660Z,1010.98
2019-06-27T03:54:47.801Z,1010.90
2019-06-27T03:55:48.682Z,1011.01
2019-06-27T03:56:48.213Z,1011.05
2019-06-27T03:57:48.695Z,1011.00
2019-06-27T03:58:48.499Z,1011.06
2019-06-27T03:59:48.655Z,1011.03
2019-06-27T04:00:48.813Z,1011.01
2019-06-27T04:01:48.974Z,1011.09
2019-06-27T04:02:49.169Z,1011.11
2019-06-27T04:03:49.342Z,1011.11
2019-06-27T04:04:49.522Z,1011.08
2019-06-27T04:05:50.689Z,1011.02
2019-06-27T04:06:49.929Z,1011.13
2019-06-27T04:07:50.192Z,1011.12
2019-06-27T04:08:50.213Z,1011.06
2019-06-27T04:09:51.184Z,1011.05
2019-06-27T04:10:51.169Z,1011.02
2019-06-27T04:11:50.783Z,1011.03
2019-06-27T04:12:50.982Z,1011.06
2019-06-27T04:13:51.176Z,1011.08
2019-06-27T04:14:52.367Z,1011.12
2019-06-27T04:15:51.515Z,1011.11
2019-06-27T04:16:51.648Z,1011.07
2019-06-27T04:17:51.819Z,1011.09
2019-06-27T04:18:52.196Z,1011.10
2019-06-27T04:19:53.183Z,1011.07
2019-06-27T04:20:52.692Z,1011.14
2019-06-27T04:21:53.175Z,1011.07
2019-06-27T04:22:52.800Z,1011.12
2019-06-27T04:23:53.212Z,1011.11
2019-06-27T04:24:53.681Z,1011.07
2019-06-27T04:25:53.365Z,1011.12
2019-06-27T04:26:53.516Z,1011.15
2019-06-27T04:27:53.676Z,1011.09
2019-06-27T04:28:53.853Z,1011.10
2019-06-27T04:29:54.027Z,1011.12
2019-06-27T04:30:54.703Z,1011.13
2019-06-27T04:31:54.357Z,1011.17
2019-06-27T04:32:55.191Z,1011.20
2019-06-27T04:33:54.706Z,1011.21
2019-06-27T04:34:54.896Z,1011.27
2019-06-27T04:35:55.205Z,1011.21
2019-06-27T04:36:55.236Z,1011.25
2019-06-27T04:37:55.439Z,1011.23
2019-06-27T04:38:55.607Z,1011.18
2019-06-27T04:39:56.684Z,1011.19
2019-06-27T04:40:55.989Z,1011.23
2019-06-27T04:41:56.192Z,1011.21
2019-06-27T04:42:56.340Z,1011.27
2019-06-27T04:43:56.478Z,1011.26
2019-06-27T04:44:57.646Z,1011.24
2019-06-27T04:45:56.777Z,1011.21
2019-06-27T04:46:57.199Z,1011.23
2019-06-27T04:47:57.679Z,1011.24
2019-06-27T04:48:58.209Z,1011.22
2019-06-27T04:49:57.491Z,1011.22
2019-06-27T04:50:57.687Z,1011.21
2019-06-27T04:51:59.690Z,1011.27
2019-06-27T04:52:58.082Z,1011.23
2019-06-27T04:53:58.250Z,1011.23
2019-06-27T04:55:02.827Z,1011.30
2019-06-27T04:55:59.701Z,1011.21
2019-06-27T04:56:59.690Z,1011.20
2019-06-27T04:57:59.694Z,1011.22
2019-06-27T04:58:59.101Z,1011.29
2019-06-27T04:59:59.309Z,1011.23
2019-06-27T05:00:59.503Z,1011.25
2019-06-27T05:01:59.695Z,1011.21
2019-06-27T05:02:59.865Z,1011.18
2019-06-27T05:04:00.045Z,1011.20
2019-06-27T05:05:01.215Z,1011.20
2019-06-27T05:06:01.204Z,1011.24
2019-06-27T05:07:01.192Z,1011.16
2019-06-27T05:08:01.684Z,1011.17
2019-06-27T05:09:00.934Z,1011.14
2019-06-27T05:10:01.101Z,1011.20
2019-06-27T05:11:01.295Z,1011.13
2019-06-27T05:12:01.487Z,1011.15
2019-06-27T05:13:02.202Z,1011.12
2019-06-27T05:14:01.846Z,1011.15
2019-06-27T05:15:03.159Z,1011.14
2019-06-27T05:16:02.201Z,1011.19
2019-06-27T05:17:02.387Z,1011.21
2019-06-27T05:18:02.562Z,1011.20
2019-06-27T05:19:02.761Z,1011.26
2019-06-27T05:20:03.685Z,1011.16
2019-06-27T05:21:03.220Z,1011.15
2019-06-27T05:22:03.276Z,1011.16
2019-06-27T05:23:03.706Z,1011.18
2019-06-27T05:24:03.676Z,1011.21
2019-06-27T05:25:03.878Z,1011.24
2019-06-27T05:26:04.126Z,1011.22
2019-06-27T05:27:04.236Z,1011.22
2019-06-27T05:28:04.343Z,1011.23
2019-06-27T05:29:05.213Z,1011.23
2019-06-27T05:30:10.044Z,1011.25
2019-06-27T05:31:06.990Z,1011.23
2019-06-27T05:32:06.151Z,1011.32
2019-06-27T05:33:06.205Z,1011.32
2019-06-27T05:34:05.601Z,1011.35
2019-06-27T05:35:05.715Z,1011.34
2019-06-27T05:36:05.920Z,1011.37
2019-06-27T05:37:06.171Z,1011.32
2019-06-27T05:38:06.275Z,1011.35
2019-06-27T05:39:06.484Z,1011.28
2019-06-27T05:40:06.674Z,1011.32
2019-06-27T05:41:06.873Z,1011.30
2019-06-27T05:42:07.072Z,1011.33
2019-06-27T05:43:07.320Z,1011.30
2019-06-27T05:44:07.500Z,1011.37
2019-06-27T05:45:07.715Z,1011.34
2019-06-27T05:46:07.962Z,1011.33
2019-06-27T05:47:08.218Z,1011.36
2019-06-27T05:48:08.298Z,1011.34
2019-06-27T05:49:08.570Z,1011.29
2019-06-27T05:50:08.720Z,1011.20
2019-06-27T05:51:08.796Z,1011.23
2019-06-27T05:52:09.711Z,1011.24
2019-06-27T05:53:09.136Z,1011.25
2019-06-27T05:54:10.198Z,1011.24
2019-06-27T05:55:09.499Z,1011.26
2019-06-27T05:56:09.655Z,1011.28
2019-06-27T05:57:09.865Z,1011.28
2019-06-27T05:58:10.707Z,1011.29
2019-06-27T05:59:11.226Z,1011.28
2019-06-27T06:00:26.652Z,1011.21
2019-06-27T06:01:13.203Z,1011.22
2019-06-27T06:02:10.808Z,1011.29
2019-06-27T06:03:10.988Z,1011.29
2019-06-27T06:04:11.698Z,1011.25
2019-06-27T06:05:11.406Z,1011.23
2019-06-27T06:06:11.598Z,1011.22
2019-06-27T06:07:12.740Z,1011.24
2019-06-27T06:08:12.714Z,1011.30
2019-06-27T06:09:12.203Z,1011.26
2019-06-27T06:10:13.720Z,1011.26
2019-06-27T06:11:12.537Z,1011.29
2019-06-27T06:12:12.726Z,1011.24
2019-06-27T06:13:13.713Z,1011.30
2019-06-27T06:14:13.704Z,1011.35
2019-06-27T06:15:13.285Z,1011.27
2019-06-27T06:16:13.513Z,1011.37
2019-06-27T06:17:14.204Z,1011.40
2019-06-27T06:18:13.881Z,1011.42
2019-06-27T06:19:14.066Z,1011.36
2019-06-27T06:20:14.235Z,1011.43
2019-06-27T06:21:14.440Z,1011.36
2019-06-27T06:22:14.656Z,1011.39
2019-06-27T06:23:15.708Z,1011.38
2019-06-27T06:24:15.010Z,1011.35
2019-06-27T06:25:15.715Z,1011.40
2019-06-27T06:26:15.418Z,1011.40
2019-06-27T06:27:15.603Z,1011.42
2019-06-27T06:28:16.699Z,1011.47
2019-06-27T06:29:16.705Z,1011.48
2019-06-27T06:30:16.718Z,1011.44
2019-06-27T06:31:16.724Z,1011.42
2019-06-27T06:32:16.561Z,1011.46
2019-06-27T06:33:17.228Z,1011.43
2019-06-27T06:34:16.875Z,1011.50
2019-06-27T06:35:17.047Z,1011.46
2019-06-27T06:36:17.203Z,1011.41
2019-06-27T06:37:17.730Z,1011.43
2019-06-27T06:38:18.396Z,1011.45
2019-06-27T06:39:17.634Z,1011.46
2019-06-27T06:40:18.719Z,1011.47
2019-06-27T06:41:17.978Z,1011.43
2019-06-27T06:42:18.223Z,1011.45
2019-06-27T06:43:18.437Z,1011.45
2019-06-27T06:44:19.213Z,1011.38
2019-06-27T06:45:18.752Z,1011.45
2019-06-27T06:46:19.723Z,1011.45
2019-06-27T06:47:19.170Z,1011.43
2019-06-27T06:48:19.735Z,1011.41
2019-06-27T06:49:19.542Z,1011.41
2019-06-27T06:50:23.273Z,1011.45
2019-06-27T06:51:19.937Z,1011.42
2019-06-27T06:52:20.135Z,1011.50
2019-06-27T06:53:20.365Z,1011.46
2019-06-27T06:54:20.571Z,1011.43
2019-06-27T06:55:20.796Z,1011.40
2019-06-27T06:56:21.001Z,1011.39
2019-06-27T06:57:21.215Z,1011.44
2019-06-27T06:58:21.720Z,1011.40
2019-06-27T06:59:22.550Z,1011.35
2019-06-27T07:00:22.236Z,1011.41
2019-06-27T07:01:21.913Z,1011.46
2019-06-27T07:02:22.108Z,1011.39
2019-06-27T07:03:22.366Z,1011.46
2019-06-27T07:04:22.601Z,1011.49
2019-06-27T07:05:23.256Z,1011.53
2019-06-27T07:06:22.898Z,1011.46
2019-06-27T07:07:22.963Z,1011.55
2019-06-27T07:08:23.754Z,1011.44
2019-06-27T07:09:23.453Z,1011.46
2019-06-27T07:10:23.677Z,1011.48
2019-06-27T07:11:23.834Z,1011.51
2019-06-27T07:12:23.985Z,1011.52
2019-06-27T07:13:24.235Z,1011.54
2019-06-27T07:14:27.055Z,1011.53
2019-06-27T07:15:25.483Z,1011.50
2019-06-27T07:16:25.224Z,1011.54
2019-06-27T07:17:24.718Z,1011.54
2019-06-27T07:18:24.852Z,1011.55
2019-06-27T07:19:25.034Z,1011.47
2019-06-27T07:20:25.197Z,1011.47
2019-06-27T07:21:25.389Z,1011.44
2019-06-27T07:22:25.509Z,1011.40
2019-06-27T07:23:25.680Z,1011.36
2019-06-27T07:24:26.256Z,1011.34
2019-06-27T07:25:26.062Z,1011.36
2019-06-27T07:26:26.323Z,1011.41
2019-06-27T07:27:26.735Z,1011.38
2019-06-27T07:28:26.600Z,1011.43
2019-06-27T07:29:27.743Z,1011.42
2019-06-27T07:30:27.009Z,1011.41
2019-06-27T07:31:27.151Z,1011.42
2019-06-27T07:32:28.244Z,1011.33
2019-06-27T07:33:27.458Z,1011.39
2019-06-27T07:34:27.606Z,1011.36
2019-06-27T07:35:27.788Z,1011.36
2019-06-27T07:36:27.942Z,1011.37
2019-06-27T07:37:28.733Z,1011.42
2019-06-27T07:38:28.245Z,1011.42
2019-06-27T07:39:28.381Z,1011.39
2019-06-27T07:40:28.571Z,1011.41
2019-06-27T07:41:28.746Z,1011.40
2019-06-27T07:42:29.731Z,1011.40
2019-06-27T07:43:29.101Z,1011.39
2019-06-27T07:44:29.262Z,1011.34
2019-06-27T07:45:29.422Z,1011.38
2019-06-27T07:46:29.595Z,1011.30
2019-06-27T07:47:29.762Z,1011.34
2019-06-27T07:48:29.918Z,1011.36
2019-06-27T07:49:33.072Z,1011.32
2019-06-27T07:50:30.277Z,1011.41
2019-06-27T07:51:30.467Z,1011.37
2019-06-27T07:52:30.639Z,1011.41
2019-06-27T07:53:30.803Z,1011.42
2019-06-27T07:54:31.029Z,1011.34
2019-06-27T07:55:31.253Z,1011.35
2019-06-27T07:56:31.436Z,1011.34
2019-06-27T07:57:32.251Z,1011.29
2019-06-27T07:58:31.835Z,1011.30
2019-06-27T07:59:32.731Z,1011.29
2019-06-27T08:00:32.157Z,1011.32
2019-06-27T08:01:35.687Z,1011.25
2019-06-27T08:02:33.481Z,1011.26
2019-06-27T08:03:32.623Z,1011.29
2019-06-27T08:04:32.789Z,1011.26
2019-06-27T08:05:32.931Z,1011.19
2019-06-27T08:06:33.117Z,1011.22
2019-06-27T08:07:33.330Z,1011.26
2019-06-27T08:08:33.518Z,1011.28
2019-06-27T08:09:34.257Z,1011.21
2019-06-27T08:10:33.915Z,1011.21
2019-06-27T08:11:34.094Z,1011.20
2019-06-27T08:12:34.307Z,1011.21
2019-06-27T08:13:34.492Z,1011.14
2019-06-27T08:14:34.685Z,1011.15
2019-06-27T08:15:34.867Z,1011.19
2019-06-27T08:16:35.072Z,1011.14
2019-06-27T08:17:35.309Z,1011.16
2019-06-27T08:18:36.243Z,1011.17
2019-06-27T08:19:35.646Z,1011.15
2019-06-27T08:20:36.751Z,1011.15
2019-06-27T08:21:36.253Z,1011.18
2019-06-27T08:22:36.745Z,1011.21
2019-06-27T08:23:41.476Z,1011.17
2019-06-27T08:24:38.538Z,1011.13
2019-06-27T08:25:37.764Z,1011.11
2019-06-27T08:26:37.755Z,1011.08
2019-06-27T08:27:37.160Z,1011.12
2019-06-27T08:28:37.357Z,1011.03
2019-06-27T08:29:37.516Z,1011.08
2019-06-27T08:30:38.261Z,1011.07
2019-06-27T08:31:50.517Z,1011.06
2019-06-27T08:32:39.914Z,1011.06
2019-06-27T08:33:38.160Z,1011.00
2019-06-27T08:34:39.347Z,1011.06
2019-06-27T08:35:39.258Z,1010.95
2019-06-27T08:36:38.653Z,1010.98
2019-06-27T08:37:39.756Z,1010.95
2019-06-27T08:38:39.047Z,1010.93
2019-06-27T08:39:39.201Z,1010.95
2019-06-27T08:40:40.253Z,1010.98
2019-06-27T08:41:39.502Z,1010.90
2019-06-27T08:42:40.250Z,1010.87
2019-06-27T08:43:39.914Z,1010.93
2019-06-27T08:44:40.272Z,1010.89
2019-06-27T08:45:40.281Z,1010.96
2019-06-27T08:46:40.469Z,1010.96
2019-06-27T08:47:40.622Z,1010.95
2019-06-27T08:48:40.790Z,1010.91
2019-06-27T08:49:41.001Z,1010.89
2019-06-27T08:50:41.207Z,1010.80
2019-06-27T08:51:41.368Z,1010.90
2019-06-27T08:52:42.264Z,1010.85
2019-06-27T08:53:41.652Z,1010.85
2019-06-27T08:54:41.875Z,1010.85
2019-06-27T08:55:42.768Z,1010.90
2019-06-27T08:56:42.312Z,1010.85
2019-06-27T08:57:42.445Z,1010.87
2019-06-27T08:58:42.631Z,1010.84
2019-06-27T08:59:42.831Z,1010.83
2019-06-27T09:00:45.844Z,1010.79
2019-06-27T09:01:44.197Z,1010.79
2019-06-27T09:02:44.261Z,1010.85
2019-06-27T09:03:43.508Z,1010.85
2019-06-27T09:04:43.676Z,1010.88
2019-06-27T09:05:43.828Z,1010.85
2019-06-27T09:06:43.956Z,1010.84
2019-06-27T09:07:44.101Z,1010.83
2019-06-27T09:08:44.351Z,1010.79
2019-06-27T09:09:44.490Z,1010.85
2019-06-27T09:10:44.668Z,1010.85
2019-06-27T09:11:45.765Z,1010.76
2019-06-27T09:12:45.003Z,1010.69
2019-06-27T09:13:45.144Z,1010.72
2019-06-27T09:14:45.297Z,1010.71
2019-06-27T09:15:45.788Z,1010.72
2019-06-27T09:16:46.844Z,1010.74
2019-06-27T09:17:46.883Z,1010.75
2019-06-27T09:18:46.102Z,1010.83
2019-06-27T09:19:46.766Z,1010.77
2019-06-27T09:20:46.776Z,1010.75
2019-06-27T09:21:46.627Z,1010.72
2019-06-27T09:22:46.779Z,1010.80
2019-06-27T09:23:47.775Z,1010.75
2019-06-27T09:24:47.764Z,1010.85
2019-06-27T09:25:47.388Z,1010.77
2019-06-27T09:26:47.498Z,1010.78
2019-06-27T09:27:47.775Z,1010.80
2019-06-27T09:28:48.773Z,1010.80
2019-06-27T09:29:48.052Z,1010.72
2019-06-27T09:30:48.223Z,1010.72
2019-06-27T09:31:48.410Z,1010.68
2019-06-27T09:32:48.622Z,1010.68
2019-06-27T09:33:48.783Z,1010.72
2019-06-27T09:34:49.777Z,1010.73
2019-06-27T09:35:49.788Z,1010.79
2019-06-27T09:36:49.316Z,1010.73
2019-06-27T09:37:49.492Z,1010.73
2019-06-27T09:38:50.319Z,1010.68
2019-06-27T09:39:49.829Z,1010.66
2019-06-27T09:40:50.774Z,1010.72
2019-06-27T09:41:50.202Z,1010.70
2019-06-27T09:42:50.386Z,1010.71
2019-06-27T09:43:50.543Z,1010.66
2019-06-27T09:44:50.740Z,1010.71
2019-06-27T09:45:50.910Z,1010.70
2019-06-27T09:46:51.310Z,1010.70
2019-06-27T09:47:51.298Z,1010.69
2019-06-27T09:48:51.448Z,1010.63
2019-06-27T09:49:51.604Z,1010.66
2019-06-27T09:50:51.766Z,1010.65
2019-06-27T09:51:51.913Z,1010.64
2019-06-27T09:52:52.297Z,1010.65
2019-06-27T09:53:52.213Z,1010.64
2019-06-27T09:54:52.432Z,1010.63
2019-06-27T09:55:52.546Z,1010.60
2019-06-27T09:56:52.709Z,1010.64
2019-06-27T09:57:52.898Z,1010.57
2019-06-27T09:58:53.840Z,1010.56
2019-06-27T09:59:53.279Z,1010.49
2019-06-27T10:00:53.446Z,1010.49
2019-06-27T10:01:54.283Z,1010.51
2019-06-27T10:02:53.837Z,1010.48
2019-06-27T10:03:54.308Z,1010.55
2019-06-27T10:04:54.252Z,1010.49
2019-06-27T10:05:55.283Z,1010.51
2019-06-27T10:06:54.680Z,1010.48
2019-06-27T10:07:55.800Z,1010.54
2019-06-27T10:08:55.110Z,1010.53
2019-06-27T10:09:55.277Z,1010.57
2019-06-27T10:10:55.798Z,1010.55
2019-06-27T10:11:55.692Z,1010.53
2019-06-27T10:12:55.870Z,1010.49
2019-06-27T10:13:56.074Z,1010.49
2019-06-27T10:14:56.300Z,1010.55
2019-06-27T10:15:56.463Z,1010.48
2019-06-27T10:16:58.681Z,1010.47
2019-06-27T10:17:57.879Z,1010.44
2019-06-27T10:18:57.017Z,1010.46
2019-06-27T10:19:57.220Z,1010.42
2019-06-27T10:20:57.375Z,1010.47
2019-06-27T10:21:57.500Z,1010.44
2019-06-27T10:22:57.639Z,1010.39
2019-06-27T10:23:57.783Z,1010.45
2019-06-27T10:24:58.347Z,1010.44
2019-06-27T10:25:58.084Z,1010.44
2019-06-27T10:26:58.216Z,1010.41
2019-06-27T10:27:59.300Z,1010.43
2019-06-27T10:28:58.535Z,1010.44
2019-06-27T10:29:58.702Z,1010.47
2019-06-27T10:30:58.875Z,1010.43
2019-06-27T10:31:59.018Z,1010.43
2019-06-27T10:33:00.537Z,1010.40
2019-06-27T10:34:00.372Z,1010.43
2019-06-27T10:34:59.639Z,1010.42
2019-06-27T10:35:59.831Z,1010.33
2019-06-27T10:37:00.816Z,1010.33
2019-06-27T10:38:00.183Z,1010.27
2019-06-27T10:39:00.325Z,1010.24
2019-06-27T10:40:01.325Z,1010.24
2019-06-27T10:41:00.743Z,1010.27
2019-06-27T10:42:00.889Z,1010.34
2019-06-27T10:43:01.041Z,1010.30
2019-06-27T10:44:01.177Z,1010.30
2019-06-27T10:45:01.629Z,1010.30
2019-06-27T10:46:02.570Z,1010.34
2019-06-27T10:47:01.698Z,1010.30
2019-06-27T10:48:01.858Z,1010.33
2019-06-27T10:49:01.972Z,1010.27
2019-06-27T10:50:02.120Z,1010.31
2019-06-27T10:51:02.800Z,1010.35
2019-06-27T10:52:02.488Z,1010.36
2019-06-27T10:53:03.637Z,1010.34
2019-06-27T10:54:03.809Z,1010.37
2019-06-27T10:55:03.069Z,1010.38
2019-06-27T10:56:03.209Z,1010.38
2019-06-27T10:57:03.369Z,1010.42
2019-06-27T10:58:04.345Z,1010.33
2019-06-27T10:59:03.710Z,1010.33
2019-06-27T11:00:04.909Z,1010.28
2019-06-27T11:01:04.043Z,1010.33
2019-06-27T11:02:04.229Z,1010.21
2019-06-27T11:03:15.129Z,1010.27
2019-06-27T11:04:06.829Z,1010.32
2019-06-27T11:05:05.322Z,1010.30
2019-06-27T11:06:04.833Z,1010.31
2019-06-27T11:07:05.314Z,1010.33
2019-06-27T11:08:06.198Z,1010.31
2019-06-27T11:09:05.320Z,1010.27
2019-06-27T11:10:05.490Z,1010.24
2019-06-27T11:11:05.663Z,1010.19
2019-06-27T11:12:05.852Z,1010.27
2019-06-27T11:13:06.328Z,1010.26
2019-06-27T11:14:06.806Z,1010.23
2019-06-27T11:15:06.449Z,1010.22
2019-06-27T11:16:06.662Z,1010.22
2019-06-27T11:17:06.830Z,1010.17
2019-06-27T11:18:07.018Z,1010.17
2019-06-27T11:19:07.180Z,1010.24
2019-06-27T11:20:08.339Z,1010.19
2019-06-27T11:21:07.494Z,1010.17
2019-06-27T11:22:07.635Z,1010.18
2019-06-27T11:23:07.832Z,1010.15
2019-06-27T11:24:08.011Z,1010.10
2019-06-27T11:25:08.839Z,1010.07
2019-06-27T11:26:09.473Z,1010.05
2019-06-27T11:27:09.456Z,1010.12
2019-06-27T11:28:10.259Z,1010.11
2019-06-27T11:29:10.328Z,1010.08
2019-06-27T11:30:09.350Z,1010.05
2019-06-27T11:31:09.163Z,1010.11
2019-06-27T11:32:10.332Z,1010.04
2019-06-27T11:33:10.337Z,1010.05
2019-06-27T11:34:10.329Z,1010.06
2019-06-27T11:35:09.767Z,1009.98
2019-06-27T11:36:09.932Z,1010.02
2019-06-27T11:37:10.831Z,1009.97
2019-06-27T11:38:11.222Z,1009.94
2019-06-27T11:39:10.603Z,1010.01
2019-06-27T11:40:12.275Z,1009.94
2019-06-27T11:41:12.831Z,1009.94
2019-06-27T11:42:11.075Z,1009.98
2019-06-27T11:43:11.295Z,1009.99
2019-06-27T11:44:12.327Z,1009.89
2019-06-27T11:45:12.335Z,1009.93
2019-06-27T11:46:12.329Z,1009.95
2019-06-27T11:47:11.917Z,1009.92
2019-06-27T11:48:12.128Z,1009.95
2019-06-27T11:49:12.349Z,1009.90
2019-06-27T11:50:12.597Z,1009.82
2019-06-27T11:51:12.834Z,1009.84
2019-06-27T11:52:13.009Z,1009.86
2019-06-27T11:53:13.185Z,1009.89
2019-06-27T11:54:13.336Z,1009.84
2019-06-27T11:55:13.533Z,1009.89
2019-06-27T11:56:13.857Z,1009.75
2019-06-27T11:57:13.904Z,1009.78
2019-06-27T11:58:14.074Z,1009.75
2019-06-27T11:59:14.840Z,1009.76
2019-06-27T12:00:14.517Z,1009.73
2019-06-27T12:01:14.723Z,1009.70
2019-06-27T12:02:14.899Z,1009.68
2019-06-27T12:03:15.128Z,1009.67
2019-06-27T12:04:15.285Z,1009.64
2019-06-27T12:05:15.462Z,1009.69
2019-06-27T12:06:15.635Z,1009.63
2019-06-27T12:07:16.336Z,1009.68